Time;durP1;ratioP1;P1;durP2;ratioP2;P2;SDS_P1;SDS_P2;PMS_P1;PMS_P2;Temp;Humidity;BMP_temperature;BMP_pressure;BME280_temperature;BME280_humidity;BME280_pressure;Samples;Min_cycle;Max_cycle;Signal;HPM_P1;HPM_P2
2021/09/26 00:00:52;;;;;;;;;41.25;34.75;;;;;-146.80;100.00;64830.25;5075263;28;46386;-64
2021/09/26 00:03:17;;;;;;;;;33.50;32.50;;;;;-146.80;100.00;64830.25;5077083;27;45401;-63
2021/09/26 00:05:43;;;;;;;;;27.75;26.00;;;;;-146.80;100.00;64830.25;5075523;28;45418;-65
2021/09/26 00:08:09;;;;;;;;;29.25;26.00;;;;;-146.80;100.00;64830.25;5077008;27;45264;-65
2021/09/26 00:10:34;;;;;;;;;33.50;25.50;;;;;-146.80;100.00;64830.25;5076450;27;46122;-64
2021/09/26 00:13:00;;;;;;;;;35.75;32.75;;;;;-146.80;100.00;64830.25;5075125;28;45300;-64
2021/09/26 00:15:25;;;;;;;;;31.00;29.50;;;;;-146.80;100.00;64830.25;5075471;27;45651;-63
2021/09/26 00:17:52;;;;;;;;;30.25;27.50;;;;;-146.80;100.00;64830.25;5075452;28;45424;-63
2021/09/26 00:20:19;;;;;;;;;31.25;30.00;;;;;-146.80;100.00;64830.25;5076883;27;45376;-65
2021/09/26 00:22:45;;;;;;;;;28.50;26.00;;;;;-146.80;100.00;64830.25;5091735;27;45441;-64
2021/09/26 00:25:12;;;;;;;;;35.75;32.50;;;;;-146.80;100.00;64830.25;5076151;27;45422;-64
2021/09/26 00:27:37;;;;;;;;;32.00;29.50;;;;;-146.80;100.00;64830.25;5076474;27;45527;-64
2021/09/26 00:30:04;;;;;;;;;35.00;28.25;;;;;-146.80;100.00;64830.25;5075818;28;45431;-64
2021/09/26 00:32:30;;;;;;;;;35.75;32.75;;;;;-146.80;100.00;64830.25;5075664;27;45295;-63
2021/09/26 00:34:56;;;;;;;;;31.25;27.50;;;;;-146.80;100.00;64830.25;5076080;27;45579;-63
2021/09/26 00:37:21;;;;;;;;;34.75;31.00;;;;;-146.80;100.00;64830.25;5076288;27;45511;-63
2021/09/26 00:39:47;;;;;;;;;30.25;29.00;;;;;-146.80;100.00;64830.25;5076122;28;45892;-63
2021/09/26 00:42:12;;;;;;;;;25.75;24.50;;;;;-146.80;100.00;64830.25;5075885;27;45379;-63
2021/09/26 00:44:38;;;;;;;;;35.00;29.25;;;;;-146.80;100.00;64830.25;5075824;27;45445;-63
2021/09/26 00:47:04;;;;;;;;;32.00;29.00;;;;;-146.80;100.00;64830.25;5075860;27;45607;-63
2021/09/26 00:49:29;;;;;;;;;26.75;24.25;;;;;-146.80;100.00;64830.25;5075586;27;45746;-64
2021/09/26 00:51:54;;;;;;;;;21.75;21.50;;;;;-146.80;100.00;64830.25;5075398;27;45453;-63
2021/09/26 00:54:20;;;;;;;;;26.50;26.00;;;;;-146.80;100.00;64830.25;5075165;27;45325;-63
2021/09/26 00:56:47;;;;;;;;;23.50;21.75;;;;;-146.80;100.00;64830.25;5076044;27;45595;-68
2021/09/26 00:59:17;;;;;;;;;27.75;24.50;;;;;-146.80;100.00;64830.25;5075733;27;45720;-63
2021/09/26 01:01:43;;;;;;;;;25.25;24.75;;;;;-146.80;100.00;64830.25;5075445;28;45487;-64
2021/09/26 01:04:08;;;;;;;;;34.50;26.00;;;;;-146.80;100.00;64830.25;5075586;28;45346;-63
2021/09/26 01:06:42;;;;;;;;;30.00;26.00;;;;;-146.80;100.00;64830.25;5075777;27;45432;-62
2021/09/26 01:09:26;;;;;;;;;26.75;25.50;;;;;-146.80;100.00;64830.25;5075463;28;46123;-65
2021/09/26 01:12:30;;;;;;;;;24.50;21.25;;;;;-146.80;100.00;64830.25;5075427;28;45330;-64
2021/09/26 01:15:14;;;;;;;;;30.50;25.75;;;;;-146.80;100.00;64830.25;5075190;28;45469;-63
2021/09/26 01:17:49;;;;;;;;;25.50;23.50;;;;;-146.80;100.00;64830.25;5074231;28;45442;-64
2021/09/26 01:20:35;;;;;;;;;23.00;19.75;;;;;-146.80;100.00;64830.25;5075258;27;45687;-63
2021/09/26 01:23:03;;;;;;;;;24.75;22.00;;;;;-146.80;100.00;64830.25;5075484;27;45222;-65
2021/09/26 01:25:34;;;;;;;;;24.00;23.75;;;;;-146.80;100.00;64830.25;5075996;27;45420;-64
2021/09/26 01:28:18;;;;;;;;;25.75;24.50;;;;;-146.80;100.00;64830.25;5091554;27;45249;-64
2021/09/26 01:30:52;;;;;;;;;19.75;17.00;;;;;-146.80;100.00;64830.25;5075186;28;45334;-63
2021/09/26 01:33:24;;;;;;;;;25.50;21.00;;;;;-146.80;100.00;64830.25;5090735;27;45358;-63
2021/09/26 01:36:01;;;;;;;;;18.50;18.25;;;;;-146.80;100.00;64830.25;5091106;27;45385;-62
2021/09/26 01:38:53;;;;;;;;;26.50;24.00;;;;;-146.80;100.00;64830.25;5073952;28;45419;-62
2021/09/26 01:41:31;;;;;;;;;24.75;23.00;;;;;-146.80;100.00;64830.25;5074888;28;46373;-65
2021/09/26 01:43:58;;;;;;;;;26.75;19.25;;;;;-146.80;100.00;64830.25;5075298;27;45276;-63
2021/09/26 01:46:34;;;;;;;;;26.50;22.50;;;;;-146.80;100.00;64830.25;5075479;27;45207;-63
2021/09/26 01:49:07;;;;;;;;;23.00;20.00;;;;;-146.80;100.00;64830.25;5090969;27;45546;-64
2021/09/26 01:51:38;;;;;;;;;23.50;19.00;;;;;-146.80;100.00;64830.25;5074841;28;46685;-63
2021/09/26 01:54:08;;;;;;;;;21.25;20.75;;;;;-146.80;100.00;64830.25;5073378;28;45357;-63
2021/09/26 01:56:35;;;;;;;;;20.75;18.00;;;;;-146.80;100.00;64830.25;5074984;27;45296;-63
2021/09/26 01:59:01;;;;;;;;;30.25;23.50;;;;;-146.80;100.00;64830.25;5075090;28;45283;-63
2021/09/26 02:01:27;;;;;;;;;26.00;23.50;;;;;-146.80;100.00;64830.25;5074701;27;45429;-63
2021/09/26 02:03:53;;;;;;;;;23.25;20.00;;;;;-146.80;100.00;64830.25;5075209;27;45522;-63
2021/09/26 02:06:19;;;;;;;;;29.75;25.25;;;;;-146.80;100.00;64830.25;5077291;27;45361;-64
2021/09/26 02:08:45;;;;;;;;;23.50;20.50;;;;;-146.80;100.00;64830.25;5078646;27;45284;-64
2021/09/26 02:11:13;;;;;;;;;23.75;20.75;;;;;-146.80;100.00;64830.25;5078320;27;46096;-64
2021/09/26 02:13:41;;;;;;;;;22.50;20.00;;;;;-146.80;100.00;64830.25;5078223;27;45429;-63
2021/09/26 02:16:09;;;;;;;;;19.25;17.75;;;;;-146.80;100.00;64830.25;5078209;27;45358;-63
2021/09/26 02:18:36;;;;;;;;;24.75;20.50;;;;;-146.80;100.00;64830.25;5078674;27;45344;-64
2021/09/26 02:21:04;;;;;;;;;18.50;17.75;;;;;-146.80;100.00;64830.25;5078079;27;45831;-65
2021/09/26 02:23:31;;;;;;;;;13.00;9.50;;;;;-146.80;100.00;64830.25;5078051;27;45333;-63
2021/09/26 02:25:56;;;;;;;;;21.75;18.75;;;;;-146.80;100.00;64830.25;5078373;28;45369;-64
2021/09/26 02:28:22;;;;;;;;;16.75;15.25;;;;;-146.80;100.00;64830.25;5078613;28;45345;-62
2021/09/26 02:30:48;;;;;;;;;19.00;18.00;;;;;-146.80;100.00;64830.25;5077834;27;45816;-63
2021/09/26 02:33:14;;;;;;;;;19.75;19.50;;;;;-146.80;100.00;64830.25;5077856;27;45424;-63
2021/09/26 02:35:39;;;;;;;;;18.50;17.75;;;;;-146.80;100.00;64830.25;5077861;27;45333;-63
2021/09/26 02:38:05;;;;;;;;;13.00;11.75;;;;;-146.80;100.00;64830.25;5076758;28;45367;-63
2021/09/26 02:40:31;;;;;;;;;24.75;21.00;;;;;-146.80;100.00;64830.25;5077889;28;45755;-64
2021/09/26 02:42:56;;;;;;;;;18.75;16.25;;;;;-146.80;100.00;64830.25;5078190;27;45286;-64
2021/09/26 02:45:42;;;;;;;;;23.50;19.00;;;;;-146.80;100.00;64830.25;5078130;28;45253;-63
2021/09/26 02:48:16;;;;;;;;;19.75;16.75;;;;;-146.80;100.00;64830.25;5078427;28;45409;-64
2021/09/26 02:50:44;;;;;;;;;19.25;17.50;;;;;-146.80;100.00;64830.25;5076197;28;47545;-64
2021/09/26 02:53:12;;;;;;;;;23.75;18.75;;;;;-146.80;100.00;64830.25;5077576;27;45302;-64
2021/09/26 02:55:40;;;;;;;;;20.75;19.25;;;;;-146.80;100.00;64830.25;5076484;28;45431;-63
2021/09/26 02:58:06;;;;;;;;;18.75;17.25;;;;;-146.80;100.00;64830.25;5077742;27;45415;-63
2021/09/26 03:00:44;;;;;;;;;23.25;21.00;;;;;-146.80;100.00;64830.25;5076354;28;45740;-64
2021/09/26 03:03:25;;;;;;;;;18.00;17.25;;;;;-146.80;100.00;64830.25;5074372;28;45504;-63
2021/09/26 03:05:51;;;;;;;;;17.25;16.00;;;;;-146.80;100.00;64830.25;5076090;28;45370;-62
2021/09/26 03:08:18;;;;;;;;;18.00;14.50;;;;;-146.80;100.00;64830.25;5076455;28;45548;-63
2021/09/26 03:10:46;;;;;;;;;20.75;19.25;;;;;-146.80;100.00;64830.25;5077374;27;46319;-63
2021/09/26 03:13:12;;;;;;;;;20.50;17.75;;;;;-146.80;100.00;64830.25;5075972;28;45511;-63
2021/09/26 03:15:37;;;;;;;;;25.00;20.00;;;;;-146.80;100.00;64830.25;5092231;27;45376;-63
2021/09/26 03:18:03;;;;;;;;;22.75;22.00;;;;;-146.80;100.00;64830.25;5077699;27;45284;-63
2021/09/26 03:20:29;;;;;;;;;20.50;18.75;;;;;-146.80;100.00;64830.25;5093235;27;46564;-63
2021/09/26 03:22:55;;;;;;;;;18.75;18.50;;;;;-146.80;100.00;64830.25;5077273;27;45451;-63
2021/09/26 03:25:21;;;;;;;;;22.00;20.25;;;;;-146.80;100.00;64830.25;5077237;28;45316;-63
2021/09/26 03:27:46;;;;;;;;;20.00;19.00;;;;;-146.80;100.00;64830.25;5076441;28;45323;-63
2021/09/26 03:30:13;;;;;;;;;29.00;25.25;;;;;-146.80;100.00;64830.25;5076885;28;45429;-64
2021/09/26 03:32:38;;;;;;;;;23.00;21.75;;;;;-146.80;100.00;64830.25;5075656;28;45310;-64
2021/09/26 03:35:05;;;;;;;;;28.25;24.75;;;;;-146.80;100.00;64830.25;5077022;27;45238;-64
2021/09/26 03:37:30;;;;;;;;;22.25;21.50;;;;;-146.80;100.00;64830.25;5092968;27;45312;-65
2021/09/26 03:39:55;;;;;;;;;28.75;25.50;;;;;-146.80;100.00;64830.25;5092297;27;45867;-63
2021/09/26 03:42:21;;;;;;;;;20.25;17.75;;;;;-146.80;100.00;64830.25;5076798;27;45853;-64
2021/09/26 03:44:46;;;;;;;;;20.50;18.50;;;;;-146.80;100.00;64830.25;5077211;27;45269;-63
2021/09/26 03:47:12;;;;;;;;;20.00;16.75;;;;;-146.80;100.00;64830.25;5092885;27;45652;-64
2021/09/26 03:49:37;;;;;;;;;18.75;18.25;;;;;-146.80;100.00;64830.25;5076808;27;46472;-64
2021/09/26 03:52:03;;;;;;;;;18.50;16.75;;;;;-146.80;100.00;64830.25;5075439;28;45567;-63
2021/09/26 03:54:29;;;;;;;;;20.50;19.75;;;;;-146.80;100.00;64830.25;5077155;27;45477;-63
2021/09/26 03:56:54;;;;;;;;;20.75;18.00;;;;;-146.80;100.00;64830.25;5076965;27;45393;-66
2021/09/26 03:59:19;;;;;;;;;20.25;18.75;;;;;-146.80;100.00;64830.25;5076592;27;45442;-62
2021/09/26 04:01:46;;;;;;;;;18.75;17.25;;;;;-146.80;100.00;64830.25;5076387;27;45348;-63
2021/09/26 04:04:16;;;;;;;;;22.50;20.75;;;;;-146.80;100.00;64830.25;5076602;27;45333;-63
2021/09/26 04:06:41;;;;;;;;;20.75;19.00;;;;;-146.80;100.00;64830.25;5076629;27;45326;-62
2021/09/26 04:09:07;;;;;;;;;23.25;18.00;;;;;-146.80;100.00;64830.25;5076198;27;46259;-63
2021/09/26 04:11:34;;;;;;;;;18.75;18.50;;;;;-146.80;100.00;64830.25;5076643;27;45326;-63
2021/09/26 04:14:00;;;;;;;;;21.25;21.25;;;;;-146.80;100.00;64830.25;5076951;28;45539;-62
2021/09/26 04:16:26;;;;;;;;;24.00;21.75;;;;;-146.80;100.00;64830.25;5076738;28;45379;-63
2021/09/26 04:18:51;;;;;;;;;18.75;17.25;;;;;-146.80;100.00;64830.25;5076129;27;45254;-63
2021/09/26 04:21:17;;;;;;;;;20.50;20.00;;;;;-146.80;100.00;64830.25;5076408;27;45334;-63
2021/09/26 04:23:43;;;;;;;;;18.25;16.50;;;;;-146.80;100.00;64830.25;5076453;27;45374;-64
2021/09/26 04:26:09;;;;;;;;;18.00;14.00;;;;;-146.80;100.00;64830.25;5076668;27;45236;-63
2021/09/26 04:28:34;;;;;;;;;23.25;19.50;;;;;-146.80;100.00;64830.25;5076245;27;45593;-62
2021/09/26 04:30:59;;;;;;;;;21.00;18.50;;;;;-146.80;100.00;64830.25;5075365;28;45498;-64
2021/09/26 04:33:25;;;;;;;;;18.25;18.25;;;;;-146.80;100.00;64830.25;5076403;27;45244;-64
2021/09/26 04:35:51;;;;;;;;;17.75;17.75;;;;;-146.80;100.00;64830.25;5076588;27;45593;-62
2021/09/26 04:38:16;;;;;;;;;13.50;13.50;;;;;-146.80;100.00;64830.25;5075829;28;46622;-63
2021/09/26 04:40:42;;;;;;;;;23.50;19.50;;;;;-146.80;100.00;64830.25;5075932;27;45342;-64
2021/09/26 04:43:08;;;;;;;;;16.75;13.75;;;;;-146.80;100.00;64830.25;5075946;27;45381;-63
2021/09/26 04:45:33;;;;;;;;;16.00;14.75;;;;;-146.80;100.00;64830.25;5076517;27;45322;-63
2021/09/26 04:47:58;;;;;;;;;17.25;17.00;;;;;-146.80;100.00;64830.25;5075801;27;45758;-62
2021/09/26 04:50:24;;;;;;;;;18.75;15.75;;;;;-146.80;100.00;64830.25;5075826;27;45304;-63
2021/09/26 04:52:49;;;;;;;;;19.50;17.00;;;;;-146.80;100.00;64830.25;5075800;27;45447;-63
2021/09/26 04:55:15;;;;;;;;;19.25;15.75;;;;;-146.80;100.00;64830.25;5076035;27;45559;-64
2021/09/26 04:57:41;;;;;;;;;24.50;20.00;;;;;-146.80;100.00;64830.25;5075656;27;46254;-64
2021/09/26 05:00:07;;;;;;;;;18.75;18.75;;;;;-146.80;100.00;64830.25;5076069;27;45408;-64
2021/09/26 05:02:33;;;;;;;;;16.50;16.50;;;;;-146.80;100.00;64830.25;5076484;28;45342;-65
2021/09/26 05:04:58;;;;;;;;;24.25;20.25;;;;;-146.80;100.00;64830.25;5075781;27;45594;-63
2021/09/26 05:07:24;;;;;;;;;20.00;19.50;;;;;-146.80;100.00;64830.25;5075121;27;45312;-63
2021/09/26 05:09:49;;;;;;;;;22.75;20.25;;;;;-146.80;100.00;64830.25;5075615;27;45243;-63
2021/09/26 05:12:14;;;;;;;;;26.75;23.25;;;;;-146.80;100.00;64830.25;5075443;27;45283;-63
2021/09/26 05:14:40;;;;;;;;;21.00;21.00;;;;;-146.80;100.00;64830.25;5091499;27;45379;-62
2021/09/26 05:17:06;;;;;;;;;23.00;20.75;;;;;-146.80;100.00;64830.25;5073815;28;47298;-64
2021/09/26 05:19:32;;;;;;;;;21.50;20.25;;;;;-146.80;100.00;64830.25;5074401;28;46045;-63
2021/09/26 05:21:57;;;;;;;;;22.50;21.25;;;;;-146.80;100.00;64830.25;5075241;27;45432;-63
2021/09/26 05:24:23;;;;;;;;;23.25;21.25;;;;;-146.80;100.00;64830.25;5075723;27;45318;-64
2021/09/26 05:26:48;;;;;;;;;24.75;20.25;;;;;-146.80;100.00;64830.25;5075399;27;45361;-64
2021/09/26 05:29:13;;;;;;;;;20.50;18.75;;;;;-146.80;100.00;64830.25;5075320;27;45342;-63
2021/09/26 05:31:39;;;;;;;;;20.75;19.50;;;;;-146.80;100.00;64830.25;5074255;28;45316;-62
2021/09/26 05:34:04;;;;;;;;;23.75;20.25;;;;;-146.80;100.00;64830.25;5075825;27;45594;-62
2021/09/26 05:36:30;;;;;;;;;26.75;20.50;;;;;-146.80;100.00;64830.25;5075251;27;45483;-63
2021/09/26 05:38:55;;;;;;;;;19.00;18.50;;;;;-146.80;100.00;64830.25;5076660;27;45230;-64
2021/09/26 05:41:21;;;;;;;;;21.25;19.75;;;;;-146.80;100.00;64830.25;5081968;28;45338;-63
2021/09/26 05:43:46;;;;;;;;;21.00;20.25;;;;;-146.80;100.00;64830.25;5082223;27;45531;-63
2021/09/26 05:46:12;;;;;;;;;25.25;20.75;;;;;-146.80;100.00;64830.25;5081756;27;45325;-65
2021/09/26 05:48:37;;;;;;;;;21.50;21.00;;;;;-146.80;100.00;64830.25;5081898;27;45493;-64
2021/09/26 05:51:03;;;;;;;;;25.25;21.00;;;;;-146.80;100.00;64830.25;5082274;27;45274;-64
2021/09/26 05:53:28;;;;;;;;;26.00;22.25;;;;;-146.80;100.00;64830.25;5097779;27;45662;-63
2021/09/26 05:55:54;;;;;;;;;22.75;21.50;;;;;-146.80;100.00;64830.25;5081743;27;45325;-63
2021/09/26 05:58:20;;;;;;;;;23.75;20.75;;;;;-146.80;100.00;64830.25;5081648;27;45350;-64
2021/09/26 06:00:45;;;;;;;;;22.50;21.75;;;;;-146.80;100.00;64830.25;5082051;27;45407;-64
2021/09/26 06:03:12;;;;;;;;;23.25;18.25;;;;;-146.80;100.00;64830.25;5097660;27;45575;-64
2021/09/26 06:05:38;;;;;;;;;25.00;22.25;;;;;-146.80;100.00;64830.25;5081683;27;45441;-63
2021/09/26 06:08:04;;;;;;;;;21.75;19.50;;;;;-146.80;100.00;64830.25;5081625;28;45436;-63
2021/09/26 06:10:29;;;;;;;;;22.25;20.25;;;;;-146.80;100.00;64830.25;5081677;28;45314;-63
2021/09/26 06:12:54;;;;;;;;;20.50;20.25;;;;;-146.80;100.00;64830.25;5081707;27;45724;-64
2021/09/26 06:15:20;;;;;;;;;21.75;20.00;;;;;-146.80;100.00;64830.25;5081271;27;46447;-63
2021/09/26 06:17:45;;;;;;;;;23.00;20.50;;;;;-146.80;100.00;64830.25;5081258;27;45318;-62
2021/09/26 06:20:11;;;;;;;;;23.75;23.50;;;;;-146.80;100.00;64830.25;5081366;27;45400;-64
2021/09/26 06:22:37;;;;;;;;;19.75;18.00;;;;;-146.80;100.00;64830.25;5081799;27;45509;-64
2021/09/26 06:25:03;;;;;;;;;21.25;20.00;;;;;-146.80;100.00;64830.25;5081410;28;45227;-64
2021/09/26 06:27:30;;;;;;;;;23.25;18.25;;;;;-146.80;100.00;64830.25;5081488;27;45176;-64
2021/09/26 06:29:55;;;;;;;;;23.25;18.00;;;;;-146.80;100.00;64830.25;5097194;27;45357;-63
2021/09/26 06:32:21;;;;;;;;;22.50;19.50;;;;;-146.80;100.00;64830.25;5081554;27;45520;-63
2021/09/26 06:34:47;;;;;;;;;21.75;18.75;;;;;-146.80;100.00;64830.25;5081263;27;45503;-63
2021/09/26 06:37:12;;;;;;;;;19.50;17.50;;;;;-146.80;100.00;64830.25;5081193;27;45444;-64
2021/09/26 06:39:38;;;;;;;;;21.00;17.00;;;;;-146.80;100.00;64830.25;5081613;27;45307;-64
2021/09/26 06:42:03;;;;;;;;;16.75;14.75;;;;;-146.80;100.00;64830.25;5081506;27;45381;-63
2021/09/26 06:44:29;;;;;;;;;19.00;19.00;;;;;-146.80;100.00;64830.25;5081587;28;45404;-64
2021/09/26 06:46:54;;;;;;;;;24.25;21.25;;;;;-146.80;100.00;64830.25;5082164;28;45400;-63
2021/09/26 06:49:20;;;;;;;;;19.50;17.50;;;;;-146.80;100.00;64830.25;5082116;27;45401;-64
2021/09/26 06:51:46;;;;;;;;;16.25;16.25;;;;;-146.80;100.00;64830.25;5077821;27;45463;-64
2021/09/26 06:54:11;;;;;;;;;20.25;19.00;;;;;-146.80;100.00;64830.25;5077772;28;46508;-63
2021/09/26 06:56:37;;;;;;;;;20.00;18.00;;;;;-146.80;100.00;64830.25;5078000;28;45271;-65
2021/09/26 06:59:03;;;;;;;;;23.00;19.00;;;;;-146.80;100.00;64830.25;5077670;27;45177;-64
2021/09/26 07:01:32;;;;;;;;;20.00;18.00;;;;;-146.80;100.00;64830.25;5076393;28;45597;-63
2021/09/26 07:03:57;;;;;;;;;25.75;19.25;;;;;-146.80;100.00;64830.25;5076974;28;46169;-64
2021/09/26 07:06:23;;;;;;;;;23.25;21.50;;;;;-146.80;100.00;64830.25;5077315;28;45496;-63
2021/09/26 07:08:48;;;;;;;;;19.50;18.75;;;;;-146.80;100.00;64830.25;5075851;27;45432;-63
2021/09/26 07:11:14;;;;;;;;;18.50;18.50;;;;;-146.80;100.00;64830.25;5077464;27;45547;-63
2021/09/26 07:13:39;;;;;;;;;18.75;15.00;;;;;-146.80;100.00;64830.25;5077456;27;45573;-63
2021/09/26 07:16:04;;;;;;;;;23.75;21.50;;;;;-146.80;100.00;64830.25;5077198;27;45433;-64
2021/09/26 07:18:30;;;;;;;;;21.75;19.75;;;;;-146.80;100.00;64830.25;5077150;27;45412;-64
2021/09/26 07:20:55;;;;;;;;;18.25;15.75;;;;;-146.80;100.00;64830.25;5077487;27;45303;-63
2021/09/26 07:23:21;;;;;;;;;23.75;22.50;;;;;-146.80;100.00;64830.25;5076123;27;47780;-64
2021/09/26 07:25:46;;;;;;;;;17.50;17.50;;;;;-146.80;100.00;64830.25;5077229;27;45349;-64
2021/09/26 07:28:11;;;;;;;;;19.25;16.50;;;;;-146.80;100.00;64830.25;5077603;27;45286;-64
2021/09/26 07:30:37;;;;;;;;;22.25;18.50;;;;;-146.80;100.00;64830.25;5075941;28;45271;-63
2021/09/26 07:33:02;;;;;;;;;16.75;15.50;;;;;-146.80;100.00;64830.25;5077066;27;46107;-63
2021/09/26 07:35:28;;;;;;;;;17.25;16.00;;;;;-146.80;100.00;64830.25;5077406;27;45211;-64
2021/09/26 07:37:53;;;;;;;;;22.75;17.25;;;;;-146.80;100.00;64830.25;5077535;28;45354;-63
2021/09/26 07:40:19;;;;;;;;;18.25;17.00;;;;;-146.80;100.00;64830.25;5077799;27;45223;-65
2021/09/26 07:42:46;;;;;;;;;20.00;16.50;;;;;-146.80;100.00;64830.25;5076034;27;48060;-63
2021/09/26 07:45:13;;;;;;;;;23.00;20.25;;;;;-146.80;100.00;64830.25;5076142;27;45396;-64
2021/09/26 07:47:39;;;;;;;;;17.75;16.50;;;;;-146.80;100.00;64830.25;5076086;27;45947;-64
2021/09/26 07:50:05;;;;;;;;;17.25;17.00;;;;;-146.80;100.00;64830.25;5077041;27;45525;-64
2021/09/26 07:52:31;;;;;;;;;23.25;19.75;;;;;-146.80;100.00;64830.25;5076543;27;45308;-65
2021/09/26 07:54:57;;;;;;;;;20.00;18.00;;;;;-146.80;100.00;64830.25;5076534;27;45382;-64
2021/09/26 07:57:23;;;;;;;;;22.50;21.50;;;;;-146.80;100.00;64830.25;5075571;27;45273;-66
2021/09/26 07:59:50;;;;;;;;;20.00;19.00;;;;;-146.80;100.00;64830.25;5075851;28;45590;-64
2021/09/26 08:02:15;;;;;;;;;19.50;17.00;;;;;-146.80;100.00;64830.25;5076163;27;46409;-63
2021/09/26 08:04:42;;;;;;;;;25.00;19.50;;;;;-146.80;100.00;64830.25;5076782;27;45415;-63
2021/09/26 08:07:07;;;;;;;;;18.00;18.00;;;;;-146.80;100.00;64830.25;5076888;27;45297;-65
2021/09/26 08:09:33;;;;;;;;;21.50;18.75;;;;;-146.80;100.00;64830.25;5076780;27;45460;-64
2021/09/26 08:11:58;;;;;;;;;26.00;19.25;;;;;-146.80;100.00;64830.25;5076269;27;46236;-65
2021/09/26 08:14:24;;;;;;;;;21.75;20.25;;;;;-146.80;100.00;64830.25;5076576;27;45362;-65
2021/09/26 08:16:49;;;;;;;;;19.00;17.25;;;;;-146.80;100.00;64830.25;5075128;28;45774;-65
2021/09/26 08:19:15;;;;;;;;;23.00;20.50;;;;;-146.80;100.00;64830.25;5076828;27;45561;-65
2021/09/26 08:21:40;;;;;;;;;21.00;18.75;;;;;-146.80;100.00;64830.25;5092052;27;47500;-65
2021/09/26 08:24:07;;;;;;;;;21.00;18.25;;;;;-146.80;100.00;64830.25;5092091;27;45918;-64
2021/09/26 08:26:33;;;;;;;;;22.00;17.75;;;;;-146.80;100.00;64830.25;5075063;28;45374;-64
2021/09/26 08:28:59;;;;;;;;;23.75;18.25;;;;;-146.80;100.00;64830.25;5075119;28;45526;-63
2021/09/26 08:31:25;;;;;;;;;24.25;19.25;;;;;-146.80;100.00;64830.25;5076383;28;45318;-64
2021/09/26 08:33:50;;;;;;;;;21.00;18.00;;;;;-146.80;100.00;64830.25;5074943;27;45761;-64
2021/09/26 08:36:16;;;;;;;;;19.25;17.25;;;;;-146.80;100.00;64830.25;5076667;27;45334;-64
2021/09/26 08:38:42;;;;;;;;;17.00;16.00;;;;;-146.80;100.00;64830.25;5077048;27;45362;-65
2021/09/26 08:41:08;;;;;;;;;19.25;15.50;;;;;-146.80;100.00;64830.25;5076038;27;46044;-64
2021/09/26 08:43:34;;;;;;;;;19.50;17.25;;;;;-146.80;100.00;64830.25;5075669;28;45284;-65
2021/09/26 08:46:00;;;;;;;;;14.75;13.75;;;;;-146.80;100.00;64830.25;5091302;27;45357;-65
2021/09/26 08:48:28;;;;;;;;;20.25;19.00;;;;;-146.80;100.00;64830.25;5076001;27;45902;-64
2021/09/26 08:50:54;;;;;;;;;18.75;15.00;;;;;-146.80;100.00;64830.25;5075829;27;46484;-66
2021/09/26 08:53:24;;;;;;;;;15.50;14.25;;;;;-146.80;100.00;64830.25;5073782;27;45469;-64
2021/09/26 08:55:50;;;;;;;;;16.00;13.50;;;;;-146.80;100.00;64830.25;5075630;27;45448;-65
2021/09/26 08:58:17;;;;;;;;;17.50;16.75;;;;;-146.80;100.00;64830.25;5076009;27;45334;-64
2021/09/26 09:00:42;;;;;;;;;19.50;18.25;;;;;-146.80;100.00;64830.25;5074299;28;47409;-64
2021/09/26 09:03:14;;;;;;;;;17.25;16.25;;;;;-146.80;100.00;64830.25;5073660;28;45320;-63
2021/09/26 09:05:40;;;;;;;;;17.00;17.00;;;;;-146.80;100.00;64830.25;5073984;28;45429;-63
2021/09/26 09:08:17;;;;;;;;;16.50;14.75;;;;;-146.80;100.00;64830.25;5075726;27;45279;-64
2021/09/26 09:10:44;;;;;;;;;16.00;14.50;;;;;-146.80;100.00;64830.25;5075863;27;45720;-64
2021/09/26 09:13:17;;;;;;;;;12.75;12.00;;;;;-146.80;100.00;64830.25;5075356;28;45342;-64
2021/09/26 09:15:51;;;;;;;;;19.00;15.25;;;;;-146.80;100.00;64830.25;5075519;28;45463;-65
2021/09/26 09:18:17;;;;;;;;;15.00;14.00;;;;;-146.80;100.00;64830.25;5091826;27;45418;-64
2021/09/26 09:20:43;;;;;;;;;19.00;15.75;;;;;-146.80;100.00;64830.25;5075782;27;46287;-63
2021/09/26 09:23:16;;;;;;;;;17.75;15.50;;;;;-146.80;100.00;64830.25;5075533;27;45462;-65
2021/09/26 09:25:46;;;;;;;;;16.50;15.75;;;;;-146.80;100.00;64830.25;5075501;28;45207;-63
2021/09/26 09:28:16;;;;;;;;;14.00;13.50;;;;;-146.80;100.00;64830.25;5075558;27;45407;-64
2021/09/26 09:30:55;;;;;;;;;16.75;15.75;;;;;-146.80;100.00;64830.25;5074730;27;46113;-64
2021/09/26 09:33:23;;;;;;;;;14.00;13.50;;;;;-146.80;100.00;64830.25;5073486;28;45254;-65
2021/09/26 09:35:54;;;;;;;;;13.00;12.75;;;;;-146.80;100.00;64830.25;5075236;27;45462;-64
2021/09/26 09:38:28;;;;;;;;;14.50;13.00;;;;;-146.80;100.00;64830.25;5075476;27;45550;-63
2021/09/26 09:40:55;;;;;;;;;15.75;14.25;;;;;-146.80;100.00;64830.25;5074823;28;45716;-64
2021/09/26 09:43:21;;;;;;;;;23.25;18.50;;;;;-146.80;100.00;64830.25;5090865;27;45352;-64
2021/09/26 09:45:52;;;;;;;;;13.25;12.25;;;;;-146.80;100.00;64830.25;5075595;27;45384;-64
2021/09/26 09:48:35;;;;;;;;;14.75;12.75;;;;;-146.80;100.00;64830.25;5075562;27;45328;-64
2021/09/26 09:51:04;;;;;;;;;16.00;13.25;;;;;-146.80;100.00;64830.25;5074973;28;45385;-65
2021/09/26 09:53:38;;;;;;;;;15.00;15.00;;;;;-146.80;100.00;64830.25;5074838;27;45184;-64
2021/09/26 09:56:20;;;;;;;;;12.25;11.25;;;;;-146.80;100.00;64830.25;5075009;27;45309;-64
2021/09/26 09:58:55;;;;;;;;;15.75;13.75;;;;;-146.80;100.00;64830.25;5075217;28;45267;-65
2021/09/26 10:01:32;;;;;;;;;13.75;12.50;;;;;-146.80;100.00;64830.25;5073240;28;46904;-65
2021/09/26 10:03:59;;;;;;;;;16.75;14.00;;;;;-146.80;100.00;64830.25;5074668;28;45250;-64
2021/09/26 10:06:41;;;;;;;;;14.75;12.00;;;;;-146.80;100.00;64830.25;5074896;27;45209;-65
2021/09/26 10:09:23;;;;;;;;;13.25;12.50;;;;;-146.80;100.00;64830.25;5074625;27;45468;-66
2021/09/26 10:11:51;;;;;;;;;15.00;14.50;;;;;-146.80;100.00;64830.25;5089988;27;46826;-66
2021/09/26 10:14:18;;;;;;;;;17.75;15.75;;;;;-146.80;100.00;64830.25;5074288;27;45177;-65
2021/09/26 10:16:44;;;;;;;;;17.75;16.00;;;;;-146.80;100.00;64830.25;5074160;27;45341;-66
2021/09/26 10:19:10;;;;;;;;;13.25;13.25;;;;;-146.80;100.00;64830.25;5074268;27;45262;-65
2021/09/26 10:21:38;;;;;;;;;17.00;16.75;;;;;-146.80;100.00;64830.25;5074205;27;45724;-65
2021/09/26 10:24:06;;;;;;;;;12.50;12.50;;;;;-146.80;100.00;64830.25;5073978;27;45322;-65
2021/09/26 10:26:33;;;;;;;;;18.25;16.00;;;;;-146.80;100.00;64830.25;5092005;27;45297;-64
2021/09/26 10:29:00;;;;;;;;;18.50;15.50;;;;;-146.80;100.00;64830.25;5077021;27;45528;-64
2021/09/26 10:31:28;;;;;;;;;20.75;16.50;;;;;-146.80;100.00;64830.25;5076982;27;45432;-65
2021/09/26 10:34:00;;;;;;;;;18.00;15.00;;;;;-146.80;100.00;64830.25;5077022;27;45408;-64
2021/09/26 10:36:27;;;;;;;;;24.00;22.75;;;;;-146.80;100.00;64830.25;5077219;28;45361;-64
2021/09/26 10:38:53;;;;;;;;;14.75;13.00;;;;;-146.80;100.00;64830.25;5077393;27;45512;-65
2021/09/26 10:41:19;;;;;;;;;16.50;13.50;;;;;-146.80;100.00;64830.25;5076994;27;45370;-65
2021/09/26 10:43:45;;;;;;;;;17.00;16.75;;;;;-146.80;100.00;64830.25;5077179;27;45347;-65
2021/09/26 10:46:19;;;;;;;;;21.50;17.50;;;;;-146.80;100.00;64830.25;5059096;28;45565;-64
2021/09/26 10:49:06;;;;;;;;;19.25;16.00;;;;;-146.80;100.00;64830.25;5077685;27;45323;-65
2021/09/26 10:51:41;;;;;;;;;21.00;16.25;;;;;-146.80;100.00;64830.25;5076624;28;46192;-65
2021/09/26 10:54:22;;;;;;;;;15.00;13.25;;;;;-146.80;100.00;64830.25;5076610;28;45322;-64
2021/09/26 10:57:18;;;;;;;;;16.00;16.00;;;;;-146.80;100.00;64830.25;5092386;27;45474;-65